Mammoth, Arizona
Current Conditions -  °F | °C
As of 4:55 PM on Friday 28 Nov 2014 (Local Time) from KAVQ Reporting Station
Clear Clear  
Wind Chill: 80°   Ceiling: Unl
Heat Index: 80°   Visibility: 10mi
Dew Point: 23°   Wind: 7mph
Humidity: 12%   Direction: 310°NW
Pressure: 29.94"   Gusts: NA
Location:  32.72°N, 110.64°W
Report Text: KAVQ 282355Z AUTO 31006KT 10SM CLR 27/M05 A2994 RMK AO2 T02651049
Loading
Personal Weather Stations






























Interactive Weather Map New forecast layout! Learn more

10-Day Weather Forecast

Advertisements
Track Severe Weather on mobile